sensor_id;sensor_type;location;lat;lon;timestamp;temperature;humidity
42147;DHT22;27815;43.410;11.852;2022-11-15T00:00:24;8.30;75.20
42147;DHT22;27815;43.410;11.852;2022-11-15T00:04:46;8.20;75.00
42147;DHT22;27815;43.410;11.852;2022-11-15T00:09:11;8.00;75.10
42147;DHT22;27815;43.410;11.852;2022-11-15T00:13:35;8.00;75.30
42147;DHT22;27815;43.410;11.852;2022-11-15T00:18:00;8.00;75.50
42147;DHT22;27815;43.410;11.852;2022-11-15T00:22:32;7.90;75.70
42147;DHT22;27815;43.410;11.852;2022-11-15T00:26:54;7.80;75.90
42147;DHT22;27815;43.410;11.852;2022-11-15T00:31:16;7.80;75.70
42147;DHT22;27815;43.410;11.852;2022-11-15T00:35:41;7.80;75.80
42147;DHT22;27815;43.410;11.852;2022-11-15T00:40:08;7.90;75.60
42147;DHT22;27815;43.410;11.852;2022-11-15T00:44:32;7.80;75.20
42147;DHT22;27815;43.410;11.852;2022-11-15T00:48:57;7.70;75.50
42147;DHT22;27815;43.410;11.852;2022-11-15T00:53:18;7.60;75.80
42147;DHT22;27815;43.410;11.852;2022-11-15T00:57:40;7.60;75.80
42147;DHT22;27815;43.410;11.852;2022-11-15T01:02:02;7.50;75.80
42147;DHT22;27815;43.410;11.852;2022-11-15T01:06:23;7.50;75.90
42147;DHT22;27815;43.410;11.852;2022-11-15T01:10:45;7.50;75.80
42147;DHT22;27815;43.410;11.852;2022-11-15T01:15:11;7.50;75.70
42147;DHT22;27815;43.410;11.852;2022-11-15T01:19:32;7.40;75.50
42147;DHT22;27815;43.410;11.852;2022-11-15T01:23:55;7.30;75.90
42147;DHT22;27815;43.410;11.852;2022-11-15T01:28:17;7.30;76.30
42147;DHT22;27815;43.410;11.852;2022-11-15T01:32:39;7.40;76.30
42147;DHT22;27815;43.410;11.852;2022-11-15T01:37:00;7.40;76.30
42147;DHT22;27815;43.410;11.852;2022-11-15T01:41:31;7.50;76.30
42147;DHT22;27815;43.410;11.852;2022-11-15T01:45:58;7.50;76.20
42147;DHT22;27815;43.410;11.852;2022-11-15T01:50:29;7.50;76.20
42147;DHT22;27815;43.410;11.852;2022-11-15T01:55:09;7.50;76.30
42147;DHT22;27815;43.410;11.852;2022-11-15T01:59:32;7.50;76.40
42147;DHT22;27815;43.410;11.852;2022-11-15T02:04:09;7.50;76.30
42147;DHT22;27815;43.410;11.852;2022-11-15T02:08:31;7.60;76.50
42147;DHT22;27815;43.410;11.852;2022-11-15T02:12:54;7.60;75.90
42147;DHT22;27815;43.410;11.852;2022-11-15T02:22:05;7.60;76.00
42147;DHT22;27815;43.410;11.852;2022-11-15T02:26:53;7.60;76.30
42147;DHT22;27815;43.410;11.852;2022-11-15T02:31:32;7.70;76.40
42147;DHT22;27815;43.410;11.852;2022-11-15T02:36:02;7.70;76.50
42147;DHT22;27815;43.410;11.852;2022-11-15T02:44:56;7.90;76.70
42147;DHT22;27815;43.410;11.852;2022-11-15T02:49:19;7.80;76.40
42147;DHT22;27815;43.410;11.852;2022-11-15T02:53:40;7.90;76.30
42147;DHT22;27815;43.410;11.852;2022-11-15T03:07:44;8.10;76.40
42147;DHT22;27815;43.410;11.852;2022-11-15T03:12:08;8.10;76.50
42147;DHT22;27815;43.410;11.852;2022-11-15T03:21:19;8.00;77.20
42147;DHT22;27815;43.410;11.852;2022-11-15T03:25:47;8.10;77.00
42147;DHT22;27815;43.410;11.852;2022-11-15T03:30:09;8.10;76.90
42147;DHT22;27815;43.410;11.852;2022-11-15T03:34:41;8.20;76.60
42147;DHT22;27815;43.410;11.852;2022-11-15T03:39:07;8.30;76.70
42147;DHT22;27815;43.410;11.852;2022-11-15T03:43:39;8.30;76.80
42147;DHT22;27815;43.410;11.852;2022-11-15T03:48:07;8.40;76.80
42147;DHT22;27815;43.410;11.852;2022-11-15T03:52:33;8.50;76.70
42147;DHT22;27815;43.410;11.852;2022-11-15T03:56:55;8.50;76.50
42147;DHT22;27815;43.410;11.852;2022-11-15T04:01:16;8.40;76.60
42147;DHT22;27815;43.410;11.852;2022-11-15T04:05:37;8.50;76.60
42147;DHT22;27815;43.410;11.852;2022-11-15T04:09:58;8.50;76.70
42147;DHT22;27815;43.410;11.852;2022-11-15T04:14:23;8.50;76.90
42147;DHT22;27815;43.410;11.852;2022-11-15T04:18:44;8.50;77.00
42147;DHT22;27815;43.410;11.852;2022-11-15T04:23:09;8.50;77.10
42147;DHT22;27815;43.410;11.852;2022-11-15T04:27:49;8.50;77.30
42147;DHT22;27815;43.410;11.852;2022-11-15T04:32:11;8.50;77.20
42147;DHT22;27815;43.410;11.852;2022-11-15T04:36:32;8.50;77.50
42147;DHT22;27815;43.410;11.852;2022-11-15T04:41:16;8.50;77.70
42147;DHT22;27815;43.410;11.852;2022-11-15T04:45:46;8.50;77.80
42147;DHT22;27815;43.410;11.852;2022-11-15T04:50:16;8.50;77.70
42147;DHT22;27815;43.410;11.852;2022-11-15T04:54:51;8.50;77.60
42147;DHT22;27815;43.410;11.852;2022-11-15T04:59:12;8.50;77.70
42147;DHT22;27815;43.410;11.852;2022-11-15T05:03:37;8.50;77.70
42147;DHT22;27815;43.410;11.852;2022-11-15T05:08:19;8.50;77.70
42147;DHT22;27815;43.410;11.852;2022-11-15T05:12:47;8.50;77.70
42147;DHT22;27815;43.410;11.852;2022-11-15T05:17:12;8.50;78.00
42147;DHT22;27815;43.410;11.852;2022-11-15T05:21:37;8.50;77.70
42147;DHT22;27815;43.410;11.852;2022-11-15T05:26:00;8.50;77.70
42147;DHT22;27815;43.410;11.852;2022-11-15T05:30:29;8.50;77.80
42147;DHT22;27815;43.410;11.852;2022-11-15T05:34:51;8.50;77.90
42147;DHT22;27815;43.410;11.852;2022-11-15T05:39:18;8.50;78.00
42147;DHT22;27815;43.410;11.852;2022-11-15T05:43:50;8.40;78.50
42147;DHT22;27815;43.410;11.852;2022-11-15T05:48:16;8.40;78.50
42147;DHT22;27815;43.410;11.852;2022-11-15T05:52:56;8.50;78.40
42147;DHT22;27815;43.410;11.852;2022-11-15T05:57:29;8.50;78.20
42147;DHT22;27815;43.410;11.852;2022-11-15T06:02:22;8.50;78.10
42147;DHT22;27815;43.410;11.852;2022-11-15T06:06:57;8.60;78.20
42147;DHT22;27815;43.410;11.852;2022-11-15T06:11:29;8.60;78.00
42147;DHT22;27815;43.410;11.852;2022-11-15T06:16:02;8.60;78.00
42147;DHT22;27815;43.410;11.852;2022-11-15T06:20:33;8.60;78.00
42147;DHT22;27815;43.410;11.852;2022-11-15T06:29:52;8.70;78.30
42147;DHT22;27815;43.410;11.852;2022-11-15T06:34:13;8.70;78.00
42147;DHT22;27815;43.410;11.852;2022-11-15T06:38:37;8.90;78.00
42147;DHT22;27815;43.410;11.852;2022-11-15T06:43:02;8.90;77.90
42147;DHT22;27815;43.410;11.852;2022-11-15T06:48:04;8.90;78.00
42147;DHT22;27815;43.410;11.852;2022-11-15T07:00:33;9.00;78.10
42147;DHT22;27815;43.410;11.852;2022-11-15T07:05:55;9.10;78.10
42147;DHT22;27815;43.410;11.852;2022-11-15T07:11:08;9.20;77.90
42147;DHT22;27815;43.410;11.852;2022-11-15T07:15:36;9.20;77.70
42147;DHT22;27815;43.410;11.852;2022-11-15T07:20:03;9.20;77.70
42147;DHT22;27815;43.410;11.852;2022-11-15T07:24:50;9.30;77.90
42147;DHT22;27815;43.410;11.852;2022-11-15T07:30:14;9.20;78.20
42147;DHT22;27815;43.410;11.852;2022-11-15T07:35:33;9.20;78.50
42147;DHT22;27815;43.410;11.852;2022-11-15T07:40:37;9.30;78.20
42147;DHT22;27815;43.410;11.852;2022-11-15T07:45:20;9.30;78.20
42147;DHT22;27815;43.410;11.852;2022-11-15T07:49:56;9.30;78.70
42147;DHT22;27815;43.410;11.852;2022-11-15T07:54:43;9.30;78.40
42147;DHT22;27815;43.410;11.852;2022-11-15T07:59:54;9.40;78.20
42147;DHT22;27815;43.410;11.852;2022-11-15T08:10:27;9.50;78.20
42147;DHT22;27815;43.410;11.852;2022-11-15T08:16:17;9.50;78.10
42147;DHT22;27815;43.410;11.852;2022-11-15T08:22:05;9.60;78.20
42147;DHT22;27815;43.410;11.852;2022-11-15T08:27:58;9.70;78.20
42147;DHT22;27815;43.410;11.852;2022-11-15T08:34:26;9.70;78.30
42147;DHT22;27815;43.410;11.852;2022-11-15T08:40:01;9.80;78.20
42147;DHT22;27815;43.410;11.852;2022-11-15T08:45:38;9.90;78.10
42147;DHT22;27815;43.410;11.852;2022-11-15T08:51:06;9.80;77.40
42147;DHT22;27815;43.410;11.852;2022-11-15T08:57:12;9.70;78.00
42147;DHT22;27815;43.410;11.852;2022-11-15T09:03:36;9.80;78.20
42147;DHT22;27815;43.410;11.852;2022-11-15T09:20:21;10.00;78.00
42147;DHT22;27815;43.410;11.852;2022-11-15T09:25:35;10.00;78.10
42147;DHT22;27815;43.410;11.852;2022-11-15T09:31:30;10.10;78.00
42147;DHT22;27815;43.410;11.852;2022-11-15T09:37:51;10.10;77.90
42147;DHT22;27815;43.410;11.852;2022-11-15T10:06:00;10.60;77.30
42147;DHT22;27815;43.410;11.852;2022-11-15T10:12:13;10.60;77.10
42147;DHT22;27815;43.410;11.852;2022-11-15T10:24:01;10.60;77.20
42147;DHT22;27815;43.410;11.852;2022-11-15T10:50:34;10.60;77.10
42147;DHT22;27815;43.410;11.852;2022-11-15T10:55:55;10.50;77.60
42147;DHT22;27815;43.410;11.852;2022-11-15T11:01:50;10.60;77.50
42147;DHT22;27815;43.410;11.852;2022-11-15T11:07:23;10.60;77.50
42147;DHT22;27815;43.410;11.852;2022-11-15T11:12:44;10.60;77.70
42147;DHT22;27815;43.410;11.852;2022-11-15T11:31:00;10.50;77.50
42147;DHT22;27815;43.410;11.852;2022-11-15T11:37:00;10.60;78.40
42147;DHT22;27815;43.410;11.852;2022-11-15T11:46:53;10.70;78.40
42147;DHT22;27815;43.410;11.852;2022-11-15T11:51:12;10.70;78.60
42147;DHT22;27815;43.410;11.852;2022-11-15T11:59:43;10.80;78.50
42147;DHT22;27815;43.410;11.852;2022-11-15T12:03:53;10.80;78.40
42147;DHT22;27815;43.410;11.852;2022-11-15T12:08:04;10.80;78.40
42147;DHT22;27815;43.410;11.852;2022-11-15T12:12:24;10.90;78.50
42147;DHT22;27815;43.410;11.852;2022-11-15T12:16:31;11.00;78.60
42147;DHT22;27815;43.410;11.852;2022-11-15T12:20:38;11.00;78.40
42147;DHT22;27815;43.410;11.852;2022-11-15T12:24:44;11.00;78.40
42147;DHT22;27815;43.410;11.852;2022-11-15T12:28:55;11.00;78.30
42147;DHT22;27815;43.410;11.852;2022-11-15T12:33:36;11.00;78.70
42147;DHT22;27815;43.410;11.852;2022-11-15T12:47:08;11.20;78.50
42147;DHT22;27815;43.410;11.852;2022-11-15T12:56:20;11.20;78.50
42147;DHT22;27815;43.410;11.852;2022-11-15T13:04:38;11.20;78.60
42147;DHT22;27815;43.410;11.852;2022-11-15T13:08:50;11.20;78.50
42147;DHT22;27815;43.410;11.852;2022-11-15T13:13:09;11.10;78.70
42147;DHT22;27815;43.410;11.852;2022-11-15T13:17:46;11.20;79.00
42147;DHT22;27815;43.410;11.852;2022-11-15T13:23:16;11.20;78.50
42147;DHT22;27815;43.410;11.852;2022-11-15T13:27:25;11.30;78.70
42147;DHT22;27815;43.410;11.852;2022-11-15T13:31:36;11.20;78.50
42147;DHT22;27815;43.410;11.852;2022-11-15T13:35:41;11.20;79.00
42147;DHT22;27815;43.410;11.852;2022-11-15T13:39:44;11.20;78.80
42147;DHT22;27815;43.410;11.852;2022-11-15T13:43:49;11.20;78.80
42147;DHT22;27815;43.410;11.852;2022-11-15T13:47:57;11.20;78.90
42147;DHT22;27815;43.410;11.852;2022-11-15T13:52:06;11.20;79.00
42147;DHT22;27815;43.410;11.852;2022-11-15T13:56:09;11.30;79.00
42147;DHT22;27815;43.410;11.852;2022-11-15T14:00:37;11.30;78.90
42147;DHT22;27815;43.410;11.852;2022-11-15T14:04:56;11.30;79.30
42147;DHT22;27815;43.410;11.852;2022-11-15T14:13:28;11.30;79.20
42147;DHT22;27815;43.410;11.852;2022-11-15T14:17:35;11.40;79.20
42147;DHT22;27815;43.410;11.852;2022-11-15T14:22:08;11.30;78.90
42147;DHT22;27815;43.410;11.852;2022-11-15T14:26:33;11.20;79.50
42147;DHT22;27815;43.410;11.852;2022-11-15T14:30:39;11.20;79.70
42147;DHT22;27815;43.410;11.852;2022-11-15T14:34:59;11.20;79.40
42147;DHT22;27815;43.410;11.852;2022-11-15T14:39:03;11.20;79.70
42147;DHT22;27815;43.410;11.852;2022-11-15T14:43:11;11.10;79.60
42147;DHT22;27815;43.410;11.852;2022-11-15T14:47:15;11.10;79.70
42147;DHT22;27815;43.410;11.852;2022-11-15T14:51:18;11.20;79.70
42147;DHT22;27815;43.410;11.852;2022-11-15T14:55:25;11.30;79.50
42147;DHT22;27815;43.410;11.852;2022-11-15T14:59:30;11.40;79.40
42147;DHT22;27815;43.410;11.852;2022-11-15T15:03:33;11.30;79.40
42147;DHT22;27815;43.410;11.852;2022-11-15T15:07:36;11.30;79.40
42147;DHT22;27815;43.410;11.852;2022-11-15T15:11:39;11.40;79.40
42147;DHT22;27815;43.410;11.852;2022-11-15T15:15:42;11.30;79.50
42147;DHT22;27815;43.410;11.852;2022-11-15T15:19:45;11.40;79.40
42147;DHT22;27815;43.410;11.852;2022-11-15T15:23:49;11.40;79.50
42147;DHT22;27815;43.410;11.852;2022-11-15T15:27:52;11.40;79.60
42147;DHT22;27815;43.410;11.852;2022-11-15T15:31:55;11.40;79.70
42147;DHT22;27815;43.410;11.852;2022-11-15T15:35:59;11.30;79.90
42147;DHT22;27815;43.410;11.852;2022-11-15T15:40:02;11.30;80.20
42147;DHT22;27815;43.410;11.852;2022-11-15T15:44:05;11.30;80.20
42147;DHT22;27815;43.410;11.852;2022-11-15T15:48:12;11.40;80.10
42147;DHT22;27815;43.410;11.852;2022-11-15T15:52:16;11.40;80.00
42147;DHT22;27815;43.410;11.852;2022-11-15T15:56:19;11.40;80.10
42147;DHT22;27815;43.410;11.852;2022-11-15T16:00:23;11.40;80.10
42147;DHT22;27815;43.410;11.852;2022-11-15T16:04:27;11.50;80.10
42147;DHT22;27815;43.410;11.852;2022-11-15T16:08:31;11.50;80.00
42147;DHT22;27815;43.410;11.852;2022-11-15T16:12:55;11.40;80.10
42147;DHT22;27815;43.410;11.852;2022-11-15T16:16:58;11.50;80.20
42147;DHT22;27815;43.410;11.852;2022-11-15T16:21:02;11.50;80.00
42147;DHT22;27815;43.410;11.852;2022-11-15T16:25:05;11.50;79.90
42147;DHT22;27815;43.410;11.852;2022-11-15T16:29:12;11.60;79.90
42147;DHT22;27815;43.410;11.852;2022-11-15T16:33:18;11.50;80.00
42147;DHT22;27815;43.410;11.852;2022-11-15T16:37:48;11.50;80.00
42147;DHT22;27815;43.410;11.852;2022-11-15T16:41:53;11.50;80.10
42147;DHT22;27815;43.410;11.852;2022-11-15T16:45:56;11.50;80.30
42147;DHT22;27815;43.410;11.852;2022-11-15T16:55:28;11.40;80.70
42147;DHT22;27815;43.410;11.852;2022-11-15T16:59:31;11.30;80.60
42147;DHT22;27815;43.410;11.852;2022-11-15T17:03:40;11.30;80.80
42147;DHT22;27815;43.410;11.852;2022-11-15T17:07:45;11.30;80.80
42147;DHT22;27815;43.410;11.852;2022-11-15T17:11:48;11.40;80.80
42147;DHT22;27815;43.410;11.852;2022-11-15T17:16:03;11.50;80.70
42147;DHT22;27815;43.410;11.852;2022-11-15T17:20:15;11.50;81.00
42147;DHT22;27815;43.410;11.852;2022-11-15T17:24:24;11.50;80.80
42147;DHT22;27815;43.410;11.852;2022-11-15T17:33:35;11.50;81.00
42147;DHT22;27815;43.410;11.852;2022-11-15T17:37:47;11.60;80.90
42147;DHT22;27815;43.410;11.852;2022-11-15T17:41:54;11.60;80.60
42147;DHT22;27815;43.410;11.852;2022-11-15T17:46:18;11.50;80.70
42147;DHT22;27815;43.410;11.852;2022-11-15T17:50:29;11.50;81.00
42147;DHT22;27815;43.410;11.852;2022-11-15T17:54:32;11.50;80.90
42147;DHT22;27815;43.410;11.852;2022-11-15T17:58:39;11.50;80.90
42147;DHT22;27815;43.410;11.852;2022-11-15T18:02:42;11.60;81.00
42147;DHT22;27815;43.410;11.852;2022-11-15T18:06:44;11.70;80.70
42147;DHT22;27815;43.410;11.852;2022-11-15T18:10:48;11.60;80.70
42147;DHT22;27815;43.410;11.852;2022-11-15T18:14:51;11.60;80.80
42147;DHT22;27815;43.410;11.852;2022-11-15T18:18:55;11.60;80.70
42147;DHT22;27815;43.410;11.852;2022-11-15T18:23:01;11.60;80.80
42147;DHT22;27815;43.410;11.852;2022-11-15T18:27:05;11.60;80.70
42147;DHT22;27815;43.410;11.852;2022-11-15T18:31:15;11.60;80.80
42147;DHT22;27815;43.410;11.852;2022-11-15T18:35:18;11.60;81.10
42147;DHT22;27815;43.410;11.852;2022-11-15T18:39:37;11.60;80.90
42147;DHT22;27815;43.410;11.852;2022-11-15T18:43:48;11.50;81.10
42147;DHT22;27815;43.410;11.852;2022-11-15T18:48:12;11.60;81.10
42147;DHT22;27815;43.410;11.852;2022-11-15T18:52:42;11.60;81.00
42147;DHT22;27815;43.410;11.852;2022-11-15T18:56:56;11.60;80.90
42147;DHT22;27815;43.410;11.852;2022-11-15T19:01:09;11.70;80.90
42147;DHT22;27815;43.410;11.852;2022-11-15T19:05:18;11.70;80.80
42147;DHT22;27815;43.410;11.852;2022-11-15T19:09:22;11.70;81.00
42147;DHT22;27815;43.410;11.852;2022-11-15T19:13:28;11.70;80.90
42147;DHT22;27815;43.410;11.852;2022-11-15T19:17:31;11.60;81.00
42147;DHT22;27815;43.410;11.852;2022-11-15T19:21:34;11.60;81.00
42147;DHT22;27815;43.410;11.852;2022-11-15T19:25:38;11.70;81.00
42147;DHT22;27815;43.410;11.852;2022-11-15T19:29:41;11.80;80.90
42147;DHT22;27815;43.410;11.852;2022-11-15T19:33:53;11.70;81.00
42147;DHT22;27815;43.410;11.852;2022-11-15T19:37:58;11.60;81.30
42147;DHT22;27815;43.410;11.852;2022-11-15T19:42:15;11.60;81.50
42147;DHT22;27815;43.410;11.852;2022-11-15T19:46:35;11.60;81.60
42147;DHT22;27815;43.410;11.852;2022-11-15T19:50:51;11.60;81.50
42147;DHT22;27815;43.410;11.852;2022-11-15T19:54:56;11.50;81.70
42147;DHT22;27815;43.410;11.852;2022-11-15T19:59:08;11.50;81.70
42147;DHT22;27815;43.410;11.852;2022-11-15T20:03:19;11.60;81.60
42147;DHT22;27815;43.410;11.852;2022-11-15T20:07:47;11.60;81.50
42147;DHT22;27815;43.410;11.852;2022-11-15T20:11:54;11.70;81.60
42147;DHT22;27815;43.410;11.852;2022-11-15T20:16:01;11.80;81.50
42147;DHT22;27815;43.410;11.852;2022-11-15T20:20:13;11.80;81.50
42147;DHT22;27815;43.410;11.852;2022-11-15T20:24:33;11.80;81.60
42147;DHT22;27815;43.410;11.852;2022-11-15T20:28:39;11.90;81.40
42147;DHT22;27815;43.410;11.852;2022-11-15T20:32:44;11.90;81.40
42147;DHT22;27815;43.410;11.852;2022-11-15T20:36:50;11.90;81.40
42147;DHT22;27815;43.410;11.852;2022-11-15T20:41:07;12.00;81.30
42147;DHT22;27815;43.410;11.852;2022-11-15T20:45:14;12.00;81.30
42147;DHT22;27815;43.410;11.852;2022-11-15T20:49:21;12.00;81.30
42147;DHT22;27815;43.410;11.852;2022-11-15T20:53:58;12.00;81.40
42147;DHT22;27815;43.410;11.852;2022-11-15T20:58:19;11.90;81.40
42147;DHT22;27815;43.410;11.852;2022-11-15T21:02:42;12.00;81.60
42147;DHT22;27815;43.410;11.852;2022-11-15T21:07:06;12.00;81.20
42147;DHT22;27815;43.410;11.852;2022-11-15T21:11:29;12.00;81.30
42147;DHT22;27815;43.410;11.852;2022-11-15T21:16:26;12.00;81.50
42147;DHT22;27815;43.410;11.852;2022-11-15T21:21:43;11.90;81.80
42147;DHT22;27815;43.410;11.852;2022-11-15T21:28:05;11.90;82.10
42147;DHT22;27815;43.410;11.852;2022-11-15T21:34:13;11.80;82.20
42147;DHT22;27815;43.410;11.852;2022-11-15T21:44:52;11.90;82.00
42147;DHT22;27815;43.410;11.852;2022-11-15T21:50:07;11.90;81.80
42147;DHT22;27815;43.410;11.852;2022-11-15T21:55:32;12.00;81.90
42147;DHT22;27815;43.410;11.852;2022-11-15T22:01:17;12.00;82.00
42147;DHT22;27815;43.410;11.852;2022-11-15T22:06:02;11.90;82.40
42147;DHT22;27815;43.410;11.852;2022-11-15T22:10:19;11.90;82.20
42147;DHT22;27815;43.410;11.852;2022-11-15T22:14:27;12.00;82.10
42147;DHT22;27815;43.410;11.852;2022-11-15T22:18:32;12.00;82.10
42147;DHT22;27815;43.410;11.852;2022-11-15T22:22:39;12.00;82.00
42147;DHT22;27815;43.410;11.852;2022-11-15T22:26:48;12.00;82.00
42147;DHT22;27815;43.410;11.852;2022-11-15T22:30:56;12.10;81.90
42147;DHT22;27815;43.410;11.852;2022-11-15T22:35:04;12.10;81.90
42147;DHT22;27815;43.410;11.852;2022-11-15T22:39:13;12.20;81.80
42147;DHT22;27815;43.410;11.852;2022-11-15T22:43:29;12.10;81.90
42147;DHT22;27815;43.410;11.852;2022-11-15T22:48:06;12.20;81.80
42147;DHT22;27815;43.410;11.852;2022-11-15T22:52:28;12.20;81.90
42147;DHT22;27815;43.410;11.852;2022-11-15T23:03:30;12.20;81.90
42147;DHT22;27815;43.410;11.852;2022-11-15T23:10:10;12.20;81.80
42147;DHT22;27815;43.410;11.852;2022-11-15T23:16:21;12.10;81.90
42147;DHT22;27815;43.410;11.852;2022-11-15T23:21:36;12.10;81.90
42147;DHT22;27815;43.410;11.852;2022-11-15T23:27:14;12.10;82.00
42147;DHT22;27815;43.410;11.852;2022-11-15T23:32:38;12.10;81.90
42147;DHT22;27815;43.410;11.852;2022-11-15T23:38:31;12.10;81.90
42147;DHT22;27815;43.410;11.852;2022-11-15T23:43:56;12.00;82.40
42147;DHT22;27815;43.410;11.852;2022-11-15T23:48:10;11.90;82.40
42147;DHT22;27815;43.410;11.852;2022-11-15T23:52:37;11.90;82.20
42147;DHT22;27815;43.410;11.852;2022-11-15T23:56:43;12.00;82.10
